Time;durP1;ratioP1;P1;durP2;ratioP2;P2;SDS_P1;SDS_P2;PMS_P1;PMS_P2;Temp;Humidity;BMP_temperature;BMP_pressure;BME280_temperature;BME280_humidity;BME280_pressure;Samples;Min_cycle;Max_cycle;Signal;HPM_P1;HPM_P2
2022/08/29 00:01:35;;;;;;;60.95;42.75;;;24.40;52.90;;;;;;5025493;28;20037;-77
2022/08/29 00:04:01;;;;;;;66.60;43.38;;;24.40;53.10;;;;;;5044067;28;20086;-77
2022/08/29 00:06:28;;;;;;;70.35;45.60;;;24.40;53.20;;;;;;5044383;28;20538;-77
2022/08/29 00:08:54;;;;;;;67.55;44.25;;;24.40;53.20;;;;;;5041203;28;20116;-76
2022/08/29 00:11:20;;;;;;;66.82;45.53;;;24.40;53.00;;;;;;5041562;28;20116;-77
2022/08/29 00:13:46;;;;;;;62.72;43.88;;;24.40;53.10;;;;;;5042803;28;20124;-77
2022/08/29 00:16:12;;;;;;;69.82;45.40;;;24.30;53.30;;;;;;5024876;28;20029;-77
2022/08/29 00:18:39;;;;;;;67.72;44.78;;;24.30;53.20;;;;;;5029258;28;20059;-77
2022/08/29 00:21:05;;;;;;;68.63;46.13;;;24.30;53.20;;;;;;5040776;28;20029;-76
2022/08/29 00:23:31;;;;;;;64.47;45.97;;;24.20;53.40;;;;;;5042079;28;20033;-76
2022/08/29 00:25:57;;;;;;;67.85;45.58;;;24.20;53.40;;;;;;5040613;28;20101;-76
2022/08/29 00:28:24;;;;;;;72.40;47.15;;;24.10;53.60;;;;;;5027413;28;20478;-76
2022/08/29 00:30:51;;;;;;;73.50;46.70;;;24.10;53.90;;;;;;5041586;28;20030;-76
2022/08/29 00:33:18;;;;;;;64.60;45.42;;;24.10;53.70;;;;;;5043063;28;20046;-77
2022/08/29 00:35:45;;;;;;;63.38;44.33;;;24.00;54.10;;;;;;5039662;28;20539;-77
2022/08/29 00:38:14;;;;;;;66.30;43.92;;;23.90;53.90;;;;;;5009592;28;20116;-77
2022/08/29 00:40:44;;;;;;;62.85;42.50;;;23.90;54.00;;;;;;5044282;28;20029;-77
2022/08/29 00:43:10;;;;;;;60.35;42.53;;;23.90;54.00;;;;;;5052357;28;20097;-77
2022/08/29 00:45:41;;;;;;;63.78;42.45;;;23.90;54.50;;;;;;5053938;28;20071;-78
2022/08/29 00:48:13;;;;;;;59.40;41.25;;;23.90;54.40;;;;;;5052507;28;20530;-77
2022/08/29 00:50:53;;;;;;;57.65;40.78;;;23.80;54.30;;;;;;5042943;28;20128;-77
2022/08/29 00:53:27;;;;;;;57.55;39.03;;;23.80;54.70;;;;;;5043194;28;20021;-77
2022/08/29 00:55:53;;;;;;;53.08;39.08;;;23.80;55.00;;;;;;5059061;28;20033;-76
2022/08/29 00:58:30;;;;;;;57.33;39.53;;;23.80;54.80;;;;;;5041987;28;20044;-76
2022/08/29 01:00:57;;;;;;;52.60;37.35;;;23.70;54.80;;;;;;5024663;28;20033;-76
2022/08/29 01:03:24;;;;;;;50.83;34.60;;;23.70;54.70;;;;;;5027512;28;20680;-75
2022/08/29 01:05:51;;;;;;;57.88;33.97;;;23.60;54.80;;;;;;5041295;28;20039;-75
2022/08/29 01:08:17;;;;;;;45.92;32.67;;;23.60;54.80;;;;;;5041538;28;20077;-77
2022/08/29 01:13:35;;;;;;;37.22;28.20;;;23.40;55.10;;;;;;5040780;28;20508;-75
2022/08/29 01:16:02;;;;;;;39.38;28.80;;;23.50;55.00;;;;;;5041197;28;20040;-76
2022/08/29 01:18:32;;;;;;;42.45;29.00;;;23.50;55.00;;;;;;5058808;28;20033;-77
2022/08/29 01:20:57;;;;;;;39.58;28.42;;;23.50;55.20;;;;;;5057475;28;20041;-76
2022/08/29 01:23:42;;;;;;;42.25;25.90;;;23.40;55.00;;;;;;5043339;28;20603;-77
2022/08/29 01:26:10;;;;;;;38.17;25.30;;;23.40;55.00;;;;;;5029520;28;20037;-77
2022/08/29 01:28:41;;;;;;;42.47;24.75;;;23.40;55.00;;;;;;5043676;28;20284;-76
2022/08/29 01:31:19;;;;;;;39.03;25.15;;;23.40;55.20;;;;;;5039549;28;20079;-76
2022/08/29 01:33:50;;;;;;;42.45;24.35;;;23.40;55.10;;;;;;5022204;28;20041;-76
2022/08/29 01:36:26;;;;;;;33.15;23.05;;;23.30;55.40;;;;;;5041009;28;20029;-76
2022/08/29 01:38:53;;;;;;;28.95;22.55;;;23.20;55.60;;;;;;5041663;28;20500;-76
2022/08/29 01:41:20;;;;;;;32.85;21.25;;;23.10;55.60;;;;;;5024483;28;20043;-76
2022/08/29 01:43:51;;;;;;;30.73;21.48;;;23.10;55.80;;;;;;5042028;28;20037;-76
2022/08/29 01:46:29;;;;;;;29.67;20.17;;;23.10;56.10;;;;;;5043436;28;20033;-77
2022/08/29 01:48:56;;;;;;;33.78;22.33;;;23.00;56.00;;;;;;5043454;28;20045;-76
2022/08/29 01:51:24;;;;;;;27.55;19.88;;;23.10;55.90;;;;;;5045284;28;20044;-76
2022/08/29 01:53:50;;;;;;;30.33;19.33;;;23.10;55.80;;;;;;5047630;28;20056;-76
2022/08/29 01:56:23;;;;;;;27.38;19.00;;;23.10;56.00;;;;;;5044644;28;20033;-76
2022/08/29 01:58:51;;;;;;;26.45;18.60;;;23.00;56.20;;;;;;5042408;28;20431;-76
2022/08/29 02:01:22;;;;;;;26.73;19.42;;;22.90;56.30;;;;;;5043391;28;20033;-75
2022/08/29 02:03:48;;;;;;;29.58;18.98;;;22.90;56.30;;;;;;5040630;28;20519;-75
2022/08/29 02:06:14;;;;;;;32.47;18.63;;;22.90;56.10;;;;;;5039971;28;20465;-75
2022/08/29 02:08:42;;;;;;;25.10;18.45;;;22.90;55.90;;;;;;5038280;28;20132;-75
2022/08/29 02:11:09;;;;;;;26.85;17.50;;;23.00;56.10;;;;;;5039666;28;20121;-76
2022/08/29 02:13:37;;;;;;;24.45;17.95;;;22.80;56.50;;;;;;5037439;28;20036;-76
2022/08/29 02:16:03;;;;;;;23.85;16.80;;;22.70;56.80;;;;;;5039574;28;20075;-77
2022/08/29 02:18:30;;;;;;;30.42;16.65;;;22.60;56.90;;;;;;5039992;28;20477;-75
2022/08/29 02:20:57;;;;;;;23.50;17.17;;;22.60;57.00;;;;;;5027105;28;20103;-76
2022/08/29 02:23:23;;;;;;;22.65;17.05;;;22.70;56.70;;;;;;5026994;28;20037;-78
2022/08/29 02:25:49;;;;;;;23.67;16.17;;;22.60;56.80;;;;;;5024061;28;20033;-78
2022/08/29 02:28:17;;;;;;;19.67;14.77;;;22.60;57.10;;;;;;5054428;28;20030;-78
2022/08/29 02:30:48;;;;;;;23.00;14.73;;;22.50;57.20;;;;;;5043322;28;20041;-78
2022/08/29 02:33:15;;;;;;;23.08;15.23;;;22.50;57.30;;;;;;5039928;28;20037;-78
2022/08/29 02:35:42;;;;;;;27.80;15.73;;;22.60;57.20;;;;;;5043370;28;20044;-77
2022/08/29 02:38:09;;;;;;;25.55;14.43;;;22.60;57.40;;;;;;5026589;28;20044;-77
2022/08/29 02:40:35;;;;;;;20.75;14.27;;;22.60;57.30;;;;;;5027508;28;21073;-77
2022/08/29 02:43:02;;;;;;;21.88;14.13;;;22.50;57.50;;;;;;5037974;28;20045;-78
2022/08/29 02:45:29;;;;;;;24.75;15.35;;;22.50;57.60;;;;;;5040054;28;20041;-78
2022/08/29 02:47:55;;;;;;;21.52;13.80;;;22.50;57.60;;;;;;5026839;28;21173;-76
2022/08/29 02:50:23;;;;;;;23.40;13.90;;;22.50;57.50;;;;;;5055862;28;20036;-78
2022/08/29 02:52:50;;;;;;;22.45;14.38;;;22.60;57.50;;;;;;5039707;28;20033;-75
2022/08/29 02:55:18;;;;;;;22.65;13.45;;;22.60;57.50;;;;;;5022405;28;20044;-77
2022/08/29 02:57:45;;;;;;;18.85;14.50;;;22.50;57.70;;;;;;5041549;28;20176;-77
2022/08/29 03:00:18;;;;;;;19.77;13.55;;;22.60;57.50;;;;;;5040215;28;20032;-77
2022/08/29 03:02:46;;;;;;;21.98;13.98;;;22.60;57.50;;;;;;5038500;28;20107;-77
2022/08/29 03:05:17;;;;;;;19.08;13.50;;;22.50;57.80;;;;;;5028113;28;20175;-77
2022/08/29 03:07:44;;;;;;;19.90;13.32;;;22.40;58.20;;;;;;5027268;28;20041;-79
2022/08/29 03:10:10;;;;;;;21.10;12.85;;;22.30;58.40;;;;;;5039884;28;20642;-78
2022/08/29 03:12:37;;;;;;;19.98;13.40;;;22.30;58.40;;;;;;5011408;28;20272;-79
2022/08/29 03:15:07;;;;;;;17.83;12.90;;;22.30;58.40;;;;;;5023119;28;20182;-82
2022/08/29 03:17:34;;;;;;;24.67;14.30;;;22.30;58.70;;;;;;5038444;28;20103;-81
2022/08/29 03:20:00;;;;;;;19.73;13.02;;;22.30;58.60;;;;;;5027173;28;20070;-80
2022/08/29 03:22:27;;;;;;;16.40;12.88;;;22.30;58.50;;;;;;5043340;28;20030;-79
2022/08/29 03:24:53;;;;;;;19.38;12.93;;;22.30;58.70;;;;;;5022409;28;20029;-80
2022/08/29 03:27:21;;;;;;;24.20;13.32;;;22.30;58.70;;;;;;5040741;28;20072;-78
2022/08/29 03:29:47;;;;;;;19.60;13.80;;;22.30;58.80;;;;;;5039802;28;20477;-83
2022/08/29 03:32:13;;;;;;;21.02;12.85;;;22.30;58.80;;;;;;5040581;28;20040;-83
2022/08/29 03:34:39;;;;;;;18.65;13.55;;;22.30;58.70;;;;;;5038928;28;20035;-82
2022/08/29 03:37:05;;;;;;;22.20;13.15;;;22.30;58.70;;;;;;5039561;28;20063;-83
2022/08/29 03:39:35;;;;;;;20.95;13.23;;;22.30;58.80;;;;;;5039174;28;20033;-83
2022/08/29 03:42:01;;;;;;;19.08;12.70;;;22.30;58.80;;;;;;5040710;28;20041;-82
2022/08/29 03:44:27;;;;;;;16.08;12.32;;;22.40;58.70;;;;;;5039400;28;20033;-82
2022/08/29 03:46:53;;;;;;;21.77;12.80;;;22.40;58.80;;;;;;5021854;28;20396;-84
2022/08/29 03:49:19;;;;;;;22.63;12.68;;;22.40;58.80;;;;;;5037882;28;20037;-80
2022/08/29 03:51:45;;;;;;;18.27;12.55;;;22.40;58.60;;;;;;5038001;28;20048;-81
2022/08/29 03:54:11;;;;;;;20.73;12.57;;;22.40;58.80;;;;;;5040530;28;20523;-82
2022/08/29 03:56:37;;;;;;;18.10;12.65;;;22.50;58.80;;;;;;5037608;28;20091;-79
2022/08/29 03:59:03;;;;;;;19.05;13.27;;;22.40;58.90;;;;;;5039694;28;20029;-83
2022/08/29 04:01:29;;;;;;;20.90;13.20;;;22.40;58.90;;;;;;5041473;28;20042;-85
2022/08/29 04:03:57;;;;;;;22.00;13.98;;;22.50;58.80;;;;;;5042849;28;20588;-83
2022/08/29 04:06:27;;;;;;;14.95;12.68;;;22.40;58.90;;;;;;5045291;28;20135;-82
2022/08/29 04:08:53;;;;;;;22.55;13.23;;;22.40;58.90;;;;;;5048377;28;20033;-83
2022/08/29 04:11:22;;;;;;;21.38;14.30;;;22.50;58.80;;;;;;5055926;28;20097;-76
2022/08/29 04:13:49;;;;;;;22.58;13.48;;;22.50;58.90;;;;;;5064646;28;20419;-84
2022/08/29 04:16:18;;;;;;;24.17;13.90;;;22.50;59.00;;;;;;5046204;28;20040;-82
2022/08/29 04:18:44;;;;;;;20.48;14.45;;;22.50;59.00;;;;;;5043093;28;20036;-83
2022/08/29 04:21:11;;;;;;;21.42;14.75;;;22.60;58.90;;;;;;5030967;28;20038;-82
2022/08/29 04:23:39;;;;;;;21.90;14.80;;;22.60;58.90;;;;;;5024517;28;20069;-81
2022/08/29 04:26:13;;;;;;;22.45;15.38;;;22.50;58.90;;;;;;5042653;28;20029;-80
2022/08/29 04:28:39;;;;;;;21.55;15.32;;;23.70;59.20;;;;;;5028480;28;20043;-80
2022/08/29 04:31:12;;;;;;;25.63;15.13;;;22.60;58.70;;;;;;5029138;28;20115;-81
2022/08/29 04:33:38;;;;;;;24.17;16.40;;;22.60;58.80;;;;;;5041491;28;20025;-81
2022/08/29 04:36:05;;;;;;;20.70;15.60;;;22.60;58.80;;;;;;5024317;28;20080;-81
2022/08/29 04:38:31;;;;;;;25.55;15.88;;;22.60;58.70;;;;;;5025369;28;20028;-82
2022/08/29 04:40:58;;;;;;;29.52;15.65;;;22.60;58.70;;;;;;5041540;28;20507;-77
2022/08/29 04:43:24;;;;;;;23.13;15.65;;;22.60;58.90;;;;;;5043289;28;20047;-84
2022/08/29 04:45:54;;;;;;;29.33;16.98;;;22.60;59.00;;;;;;5029678;28;20124;-81
2022/08/29 04:48:20;;;;;;;23.95;17.25;;;22.80;58.70;;;;;;5041895;28;20063;-81
2022/08/29 04:50:56;;;;;;;26.95;17.05;;;22.90;58.70;;;;;;5028372;28;20069;-80
2022/08/29 04:53:23;;;;;;;28.75;17.58;;;23.00;58.40;;;;;;5040814;28;20040;-80
2022/08/29 04:55:57;;;;;;;31.27;17.60;;;23.10;58.30;;;;;;5029730;28;20041;-80
2022/08/29 04:58:24;;;;;;;28.37;17.70;;;23.10;58.10;;;;;;5041043;28;20068;-80
2022/08/29 05:00:51;;;;;;;24.40;16.35;;;23.10;58.10;;;;;;5040134;28;20284;-80
2022/08/29 05:03:17;;;;;;;31.23;17.83;;;23.10;58.10;;;;;;5025216;28;20026;-77
2022/08/29 05:05:43;;;;;;;30.98;18.75;;;23.10;58.20;;;;;;5027832;28;20522;-78
2022/08/29 05:08:09;;;;;;;27.95;18.58;;;23.10;58.50;;;;;;5040937;28;20112;-79
2022/08/29 05:10:36;;;;;;;29.17;18.55;;;23.20;58.20;;;;;;5039234;28;20033;-80
2022/08/29 05:13:02;;;;;;;27.63;18.15;;;23.30;57.90;;;;;;5024424;28;20096;-78
2022/08/29 05:15:28;;;;;;;25.10;18.02;;;23.30;58.10;;;;;;5025657;28;20043;-79
2022/08/29 05:17:54;;;;;;;33.30;19.85;;;23.20;58.50;;;;;;5042588;28;20131;-78
2022/08/29 05:20:20;;;;;;;30.63;19.38;;;23.20;58.50;;;;;;5030058;28;20033;-79
2022/08/29 05:22:46;;;;;;;29.48;18.83;;;23.30;58.30;;;;;;5048951;28;20137;-79
2022/08/29 05:25:13;;;;;;;26.67;20.27;;;23.20;58.20;;;;;;5057074;28;20128;-79
2022/08/29 05:27:40;;;;;;;38.47;21.67;;;23.30;58.10;;;;;;5044442;28;21014;-78
2022/08/29 05:30:08;;;;;;;32.22;21.55;;;23.30;58.50;;;;;;5056433;28;20534;-79
2022/08/29 05:32:34;;;;;;;33.50;22.25;;;23.30;57.80;;;;;;5056157;28;20029;-79
2022/08/29 05:35:00;;;;;;;39.83;23.23;;;23.20;57.60;;;;;;5044281;28;20500;-75
2022/08/29 05:37:26;;;;;;;34.03;23.42;;;23.20;57.60;;;;;;5044285;28;20028;-75
2022/08/29 05:39:52;;;;;;;33.95;23.60;;;23.20;57.60;;;;;;5039329;28;20099;-77
2022/08/29 05:42:21;;;;;;;37.65;23.58;;;23.20;58.10;;;;;;5044742;28;20080;-76
2022/08/29 05:44:47;;;;;;;37.20;23.55;;;23.10;58.10;;;;;;5055280;28;20617;-76
2022/08/29 05:47:15;;;;;;;39.92;24.17;;;23.20;58.10;;;;;;5043826;28;20120;-77
2022/08/29 05:49:43;;;;;;;38.20;23.75;;;23.20;57.70;;;;;;5047561;28;20029;-75
2022/08/29 05:52:11;;;;;;;37.47;24.20;;;23.30;57.70;;;;;;5047106;28;20044;-76
2022/08/29 05:54:39;;;;;;;38.63;24.45;;;23.20;57.80;;;;;;5045714;28;20061;-77
2022/08/29 05:57:06;;;;;;;34.53;23.85;;;23.30;57.60;;;;;;5030248;28;20103;-77
2022/08/29 05:59:34;;;;;;;37.33;24.15;;;23.30;57.50;;;;;;5044170;28;20035;-76
2022/08/29 06:02:00;;;;;;;37.30;24.83;;;23.40;57.60;;;;;;5049532;28;20156;-77
2022/08/29 06:04:26;;;;;;;39.30;24.38;;;23.60;56.80;;;;;;5048507;28;20574;-77
2022/08/29 06:06:52;;;;;;;43.47;26.02;;;23.80;56.50;;;;;;5050130;28;20041;-77
2022/08/29 06:09:18;;;;;;;42.08;27.05;;;23.90;56.30;;;;;;5051083;28;20071;-77
2022/08/29 06:11:49;;;;;;;38.95;25.33;;;24.10;55.80;;;;;;5049996;28;20636;-77
2022/08/29 06:14:16;;;;;;;39.85;25.52;;;24.10;56.00;;;;;;5050271;28;20039;-77
2022/08/29 06:16:42;;;;;;;47.25;26.90;;;24.20;55.70;;;;;;5033493;28;20072;-77
2022/08/29 06:19:08;;;;;;;40.70;25.65;;;24.20;55.70;;;;;;5049777;28;20059;-76
2022/08/29 06:21:35;;;;;;;37.60;25.25;;;24.30;55.60;;;;;;5050390;28;20029;-75
2022/08/29 06:24:01;;;;;;;39.28;24.75;;;24.30;55.50;;;;;;5047377;28;20419;-75
2022/08/29 06:26:27;;;;;;;42.35;26.00;;;24.40;55.40;;;;;;5050559;28;20036;-76
2022/08/29 06:28:52;;;;;;;41.53;25.17;;;24.40;55.00;;;;;;5049399;28;20385;-75
2022/08/29 06:31:23;;;;;;;44.47;25.40;;;24.50;55.00;;;;;;5033012;28;20044;-76
2022/08/29 06:33:50;;;;;;;42.13;25.17;;;24.50;54.90;;;;;;5047049;28;20063;-76
2022/08/29 06:36:17;;;;;;;40.72;25.83;;;24.50;54.60;;;;;;5050522;28;20040;-76
2022/08/29 06:38:43;;;;;;;42.45;26.27;;;24.60;54.20;;;;;;5046807;28;20036;-76
2022/08/29 06:41:12;;;;;;;40.33;26.70;;;24.50;54.20;;;;;;5048603;28;20024;-77
2022/08/29 06:43:39;;;;;;;43.65;26.80;;;24.60;53.80;;;;;;5044137;28;20035;-76
2022/08/29 06:46:05;;;;;;;39.95;25.60;;;24.60;53.60;;;;;;5050667;28;20061;-76
2022/08/29 06:48:31;;;;;;;45.08;26.92;;;24.60;53.60;;;;;;5050374;28;20036;-76
2022/08/29 06:51:01;;;;;;;42.88;27.05;;;24.70;53.60;;;;;;5050053;28;20037;-76
2022/08/29 06:53:27;;;;;;;45.22;27.25;;;24.70;53.20;;;;;;5047685;28;20087;-80
2022/08/29 06:55:54;;;;;;;43.22;27.25;;;24.80;54.00;;;;;;5028508;28;20032;-79
2022/08/29 06:58:20;;;;;;;42.58;27.40;;;24.80;52.70;;;;;;5022340;28;20650;-79
2022/08/29 07:00:48;;;;;;;44.17;27.70;;;24.80;52.20;;;;;;5028740;28;20123;-78
2022/08/29 07:03:14;;;;;;;42.05;27.63;;;24.90;52.50;;;;;;5044849;28;20503;-80
2022/08/29 07:05:40;;;;;;;40.03;25.38;;;24.90;52.00;;;;;;5038224;28;20167;-78
2022/08/29 07:08:06;;;;;;;41.55;25.88;;;25.00;52.10;;;;;;5033082;28;20021;-79
2022/08/29 07:10:32;;;;;;;42.42;26.98;;;25.10;51.80;;;;;;5033044;28;20044;-77
2022/08/29 07:12:57;;;;;;;39.92;26.58;;;25.10;51.80;;;;;;5031637;28;20048;-79
2022/08/29 07:15:23;;;;;;;40.83;25.85;;;25.20;51.20;;;;;;5049999;28;20049;-80
2022/08/29 07:17:50;;;;;;;49.67;26.88;;;25.10;51.20;;;;;;5049267;28;20059;-78
2022/08/29 07:20:16;;;;;;;40.35;25.02;;;25.20;51.70;;;;;;5028945;28;20040;-79
2022/08/29 07:22:44;;;;;;;38.30;24.48;;;25.20;51.10;;;;;;5021246;28;20034;-79
2022/08/29 07:25:10;;;;;;;36.80;24.30;;;25.20;51.20;;;;;;5041905;28;20025;-78
2022/08/29 07:27:36;;;;;;;36.40;23.85;;;25.30;51.20;;;;;;5043441;28;20560;-77
2022/08/29 07:30:05;;;;;;;38.28;23.85;;;25.40;50.90;;;;;;5043479;28;20052;-77
2022/08/29 07:32:32;;;;;;;39.72;23.40;;;25.40;50.20;;;;;;5031663;28;20036;-78
2022/08/29 07:34:58;;;;;;;36.90;22.63;;;25.40;50.40;;;;;;5042151;28;20033;-78
2022/08/29 07:37:24;;;;;;;38.50;22.60;;;25.50;49.90;;;;;;5051256;28;20037;-79
2022/08/29 07:39:50;;;;;;;35.15;22.50;;;25.50;50.10;;;;;;5050164;28;20397;-80
2022/08/29 07:42:16;;;;;;;35.25;21.83;;;25.50;49.80;;;;;;5043032;28;20032;-80
2022/08/29 07:44:42;;;;;;;32.25;20.50;;;25.60;50.00;;;;;;5042361;28;20036;-80
2022/08/29 07:47:08;;;;;;;30.23;19.33;;;25.70;50.10;;;;;;5043202;28;20404;-80
2022/08/29 07:49:34;;;;;;;34.20;19.45;;;25.70;49.60;;;;;;5028785;28;20111;-77
2022/08/29 07:52:00;;;;;;;42.17;20.23;;;25.80;49.50;;;;;;5043272;28;21512;-79
2022/08/29 07:54:26;;;;;;;32.42;20.23;;;25.80;49.40;;;;;;5045384;28;20051;-87
2022/08/29 07:56:52;;;;;;;30.30;19.63;;;25.90;49.70;;;;;;5028769;28;20033;-88
2022/08/29 07:59:19;;;;;;;31.15;18.80;;;25.90;50.00;;;;;;5030355;28;20298;-81
2022/08/29 08:01:46;;;;;;;31.10;19.17;;;26.00;49.70;;;;;;5031067;28;20624;-81
2022/08/29 08:04:12;;;;;;;32.13;17.70;;;26.10;49.40;;;;;;5042077;28;20175;-81
2022/08/29 08:06:41;;;;;;;26.65;17.23;;;26.10;49.20;;;;;;5012510;28;20029;-82
2022/08/29 08:09:08;;;;;;;38.72;17.15;;;26.10;49.50;;;;;;5029778;28;20036;-81
2022/08/29 08:11:35;;;;;;;31.90;15.77;;;26.10;49.20;;;;;;5046317;28;20098;-80
2022/08/29 08:14:02;;;;;;;30.92;14.73;;;26.20;49.60;;;;;;5043571;28;20519;-80
2022/08/29 08:16:29;;;;;;;29.52;13.82;;;26.20;49.70;;;;;;5040934;28;20026;-81
2022/08/29 08:18:55;;;;;;;30.30;14.80;;;26.20;49.50;;;;;;5029652;28;20540;-79
2022/08/29 08:21:23;;;;;;;29.10;12.82;;;26.20;49.80;;;;;;5040799;28;20040;-79
2022/08/29 08:23:49;;;;;;;26.48;12.85;;;26.20;49.80;;;;;;5042418;28;20068;-80
2022/08/29 08:26:16;;;;;;;21.02;11.57;;;26.20;49.90;;;;;;5012443;28;20033;-80
2022/08/29 08:28:42;;;;;;;22.63;10.68;;;26.20;49.90;;;;;;5028683;28;20491;-81
2022/08/29 08:31:11;;;;;;;21.33;8.55;;;26.20;50.30;;;;;;5007948;28;20034;-82
2022/08/29 08:33:38;;;;;;;20.15;7.60;;;26.20;50.50;;;;;;5029373;28;20090;-80
2022/08/29 08:36:16;;;;;;;22.55;8.40;;;26.20;50.80;;;;;;5028846;28;20112;-77
2022/08/29 08:38:42;;;;;;;20.48;8.07;;;26.20;50.90;;;;;;5040699;28;20033;-76
2022/08/29 08:41:32;;;;;;;20.60;7.40;;;26.20;50.90;;;;;;5043588;28;20510;-79
2022/08/29 08:44:11;;;;;;;19.05;7.32;;;26.20;51.20;;;;;;5056917;28;20049;-78
2022/08/29 08:46:46;;;;;;;22.05;6.30;;;26.30;52.70;;;;;;5052406;28;20058;-78
2022/08/29 08:49:46;;;;;;;27.05;6.63;;;26.30;52.10;;;;;;5070876;28;20025;-79
2022/08/29 08:52:24;;;;;;;20.85;4.75;;;26.40;53.60;;;;;;5056697;28;20057;-87
2022/08/29 08:54:56;;;;;;;12.27;4.43;;;26.40;52.30;;;;;;5043893;28;20033;-82
2022/08/29 08:57:29;;;;;;;20.65;4.57;;;26.40;52.30;;;;;;5043206;28;20041;-83
2022/08/29 08:59:57;;;;;;;16.05;4.82;;;26.40;52.60;;;;;;5042220;28;20100;-79
2022/08/29 09:02:50;;;;;;;14.15;4.65;;;26.50;52.90;;;;;;5040179;28;20464;-79
2022/08/29 09:05:43;;;;;;;21.13;5.03;;;26.50;53.50;;;;;;5044651;28;20127;-78
2022/08/29 09:08:24;;;;;;;18.42;4.45;;;26.60;52.40;;;;;;5043796;28;20045;-80
2022/08/29 09:11:15;;;;;;;20.60;5.05;;;26.60;52.60;;;;;;5041024;28;20042;-78
2022/08/29 09:14:03;;;;;;;17.63;4.05;;;26.50;52.70;;;;;;5044258;28;20049;-76
2022/08/29 09:16:49;;;;;;;21.42;4.75;;;26.50;53.00;;;;;;5041996;28;20072;-78
2022/08/29 09:19:16;;;;;;;17.05;4.50;;;26.40;53.10;;;;;;5042324;28;20029;-78
2022/08/29 09:21:52;;;;;;;25.45;4.68;;;26.40;53.20;;;;;;5040308;28;20048;-77
2022/08/29 09:24:34;;;;;;;18.10;4.57;;;26.40;53.80;;;;;;5038566;28;20044;-78
2022/08/29 09:27:00;;;;;;;13.80;3.70;;;26.40;53.80;;;;;;5040990;28;20060;-77
2022/08/29 09:29:29;;;;;;;17.80;4.32;;;26.30;53.80;;;;;;5040764;28;20029;-78
2022/08/29 09:32:10;;;;;;;17.10;4.07;;;26.30;53.90;;;;;;5040897;28;20040;-77
2022/08/29 09:34:47;;;;;;;19.75;4.40;;;26.30;54.30;;;;;;5041485;28;20119;-77
2022/08/29 09:37:24;;;;;;;22.92;4.50;;;26.30;54.10;;;;;;5039615;28;20175;-79
2022/08/29 09:40:12;;;;;;;18.85;5.07;;;26.30;54.00;;;;;;5042768;28;20033;-78
2022/08/29 09:42:45;;;;;;;20.55;4.10;;;26.30;54.00;;;;;;5042796;28;20033;-78
2022/08/29 09:45:26;;;;;;;10.48;3.70;;;26.20;53.90;;;;;;5039326;28;20128;-78
2022/08/29 09:48:16;;;;;;;12.82;3.65;;;26.20;54.10;;;;;;5040600;28;20029;-78
2022/08/29 09:50:43;;;;;;;13.32;4.10;;;26.20;54.00;;;;;;5041805;28;20218;-77
2022/08/29 09:53:09;;;;;;;19.25;4.30;;;26.20;54.00;;;;;;5022764;28;20407;-78
2022/08/29 09:55:44;;;;;;;12.35;3.80;;;26.30;54.50;;;;;;5040165;28;20530;-79
2022/08/29 09:58:17;;;;;;;13.23;4.18;;;26.30;54.20;;;;;;5037395;28;20045;-79
2022/08/29 10:01:15;;;;;;;14.98;3.90;;;26.40;54.20;;;;;;5039323;28;20415;-78
2022/08/29 10:03:52;;;;;;;20.27;4.05;;;26.50;54.40;;;;;;5039514;28;20067;-77
2022/08/29 10:06:31;;;;;;;13.98;3.78;;;26.50;54.10;;;;;;5055449;28;20040;-78
2022/08/29 10:09:00;;;;;;;18.55;3.95;;;26.60;54.30;;;;;;5037830;28;20067;-77
2022/08/29 10:11:42;;;;;;;13.18;3.90;;;26.60;54.50;;;;;;5040613;28;20414;-78
2022/08/29 10:14:35;;;;;;;13.20;4.30;;;26.60;54.80;;;;;;5040601;28;20029;-78
2022/08/29 10:18:19;;;;;;;20.10;3.75;;;26.70;53.80;;;;;;5041450;28;20044;-77
2022/08/29 10:19:47;;;;;;;27.85;4.85;;;26.70;54.00;;;;;;5038961;28;20124;-78
2022/08/29 10:22:31;;;;;;;14.70;4.30;;;26.80;53.80;;;;;;5039687;28;20047;-78
2022/08/29 10:25:32;;;;;;;14.80;4.47;;;26.70;53.80;;;;;;5042812;28;20029;-78
2022/08/29 10:28:16;;;;;;;18.10;4.20;;;26.80;53.80;;;;;;5023728;28;20045;-78
2022/08/29 10:30:57;;;;;;;13.27;4.45;;;26.80;53.60;;;;;;5037505;28;20424;-78
2022/08/29 10:33:38;;;;;;;14.10;3.90;;;26.80;53.00;;;;;;5040554;28;20041;-78
2022/08/29 10:36:16;;;;;;;14.52;4.45;;;26.90;51.90;;;;;;5042208;28;20033;-78
2022/08/29 10:39:03;;;;;;;23.17;4.88;;;26.90;52.30;;;;;;5039641;28;20037;-76
2022/08/29 10:42:03;;;;;;;16.05;4.63;;;26.90;53.90;;;;;;5037404;28;20037;-78
2022/08/29 10:44:38;;;;;;;17.00;5.28;;;26.90;52.70;;;;;;5022638;28;20041;-78
2022/08/29 10:47:43;;;;;;;23.02;5.93;;;27.00;52.10;;;;;;5039455;28;20563;-78
2022/08/29 10:50:16;;;;;;;15.73;5.60;;;26.90;52.10;;;;;;4943865;29;20050;-78
2022/08/29 10:52:53;;;;;;;19.25;5.65;;;27.00;53.10;;;;;;4942673;29;20039;-76
2022/08/29 10:55:52;;;;;;;16.73;5.45;;;27.00;53.00;;;;;;4941945;28;20035;-77
2022/08/29 10:58:43;;;;;;;20.58;5.40;;;27.00;52.10;;;;;;4923111;29;20046;-77
2022/08/29 11:01:45;;;;;;;19.52;5.35;;;27.00;52.40;;;;;;4944720;28;20035;-77
2022/08/29 11:04:21;;;;;;;21.58;4.95;;;27.00;53.30;;;;;;4941200;28;20076;-79
2022/08/29 11:07:18;;;;;;;19.27;4.70;;;27.00;51.80;;;;;;4912044;29;20134;-80
2022/08/29 11:10:19;;;;;;;18.88;4.57;;;27.00;51.50;;;;;;4946198;28;20036;-79
2022/08/29 11:13:07;;;;;;;22.17;4.78;;;27.00;52.00;;;;;;4946978;28;20076;-78
2022/08/29 11:15:40;;;;;;;18.33;4.18;;;26.90;51.70;;;;;;4949338;29;20035;-78
2022/08/29 11:18:14;;;;;;;14.52;4.18;;;27.00;51.40;;;;;;4944791;28;20094;-78
2022/08/29 11:20:50;;;;;;;15.88;3.97;;;27.00;51.50;;;;;;4931141;29;20055;-77
2022/08/29 11:23:38;;;;;;;17.23;3.97;;;27.00;51.70;;;;;;4948124;29;20097;-78
2022/08/29 11:26:21;;;;;;;12.98;4.20;;;27.00;51.70;;;;;;4966562;28;20214;-76
2022/08/29 11:28:50;;;;;;;28.70;5.03;;;27.00;52.10;;;;;;5046715;28;20045;-77
2022/08/29 11:31:38;;;;;;;19.45;4.43;;;27.00;52.20;;;;;;5052374;28;20120;-77
2022/08/29 11:34:30;;;;;;;20.88;4.70;;;26.90;52.30;;;;;;5050585;28;20067;-76
2022/08/29 11:37:11;;;;;;;14.05;4.13;;;27.00;52.20;;;;;;5050587;28;20523;-77
2022/08/29 11:39:50;;;;;;;27.77;4.65;;;26.90;52.70;;;;;;5052682;28;20060;-77
2022/08/29 11:42:18;;;;;;;19.17;4.07;;;26.90;52.30;;;;;;5044106;28;20036;-77
2022/08/29 11:44:50;;;;;;;13.57;4.18;;;26.90;52.70;;;;;;5045548;28;21132;-77
2022/08/29 11:47:44;;;;;;;20.63;4.45;;;26.80;53.10;;;;;;5046150;28;20037;-78
2022/08/29 11:50:16;;;;;;;17.88;3.92;;;26.70;53.40;;;;;;5043999;28;20046;-75
2022/08/29 11:52:54;;;;;;;16.10;4.40;;;26.60;53.60;;;;;;5028369;28;20041;-76
2022/08/29 11:55:40;;;;;;;15.02;4.70;;;26.60;54.20;;;;;;5047864;28;20171;-76
2022/08/29 11:58:26;;;;;;;14.73;4.15;;;26.50;54.20;;;;;;5045288;28;20045;-76
2022/08/29 12:00:57;;;;;;;14.05;4.13;;;26.50;54.80;;;;;;5028762;28;20119;-75
2022/08/29 12:03:32;;;;;;;18.65;4.55;;;26.50;54.80;;;;;;5041209;28;20040;-76
2022/08/29 12:06:22;;;;;;;18.42;4.65;;;26.50;55.10;;;;;;5029103;28;20044;-76
2022/08/29 12:09:11;;;;;;;21.33;5.25;;;26.50;55.40;;;;;;5057488;28;20033;-75
2022/08/29 12:12:04;;;;;;;21.55;5.05;;;26.50;55.40;;;;;;5042579;28;20554;-77
2022/08/29 12:14:32;;;;;;;19.65;5.05;;;26.50;55.60;;;;;;5028880;28;20044;-76
2022/08/29 12:17:02;;;;;;;17.67;5.03;;;26.50;55.60;;;;;;5043932;28;20033;-77
2022/08/29 12:19:56;;;;;;;18.38;4.68;;;26.50;55.90;;;;;;5024193;28;20102;-77
2022/08/29 12:22:44;;;;;;;17.40;5.00;;;26.50;55.60;;;;;;5039878;28;20045;-76
2022/08/29 12:25:42;;;;;;;21.65;4.72;;;26.50;55.70;;;;;;5023148;28;20047;-77
2022/08/29 12:28:20;;;;;;;20.25;4.63;;;26.50;54.90;;;;;;5028913;28;20512;-77
2022/08/29 12:31:02;;;;;;;23.85;5.35;;;26.50;54.40;;;;;;5045044;28;20458;-77
2022/08/29 12:34:02;;;;;;;15.82;4.65;;;26.50;54.70;;;;;;5043645;28;20041;-77
2022/08/29 12:36:31;;;;;;;16.67;5.10;;;26.40;55.00;;;;;;5023818;28;20029;-77
2022/08/29 12:39:03;;;;;;;17.42;4.53;;;26.40;55.20;;;;;;5041447;28;20471;-77
2022/08/29 12:41:50;;;;;;;19.95;4.25;;;26.40;55.30;;;;;;5042419;28;20040;-78
2022/08/29 12:44:23;;;;;;;15.38;4.28;;;26.40;55.70;;;;;;5042985;28;20456;-78
2022/08/29 12:46:54;;;;;;;16.27;4.38;;;26.40;55.80;;;;;;5043744;28;20128;-77
2022/08/29 12:49:25;;;;;;;17.98;4.57;;;26.40;56.00;;;;;;5041175;28;20483;-78
2022/08/29 12:52:01;;;;;;;11.50;4.28;;;26.40;56.80;;;;;;5040727;28;20504;-78
2022/08/29 12:54:40;;;;;;;21.95;5.03;;;26.40;56.80;;;;;;5040885;28;20040;-77
2022/08/29 12:57:17;;;;;;;21.00;4.75;;;26.40;56.70;;;;;;5040782;28;20041;-77